sensor_id;sensor_type;location;lat;lon;timestamp;pressure;altitude;pressure_sealevel;temperature;humidity
15382;BME280;7789;51.364;12.358;2022-12-18T00:00:21;101911.75;;;-3.87;97.59
15382;BME280;7789;51.364;12.358;2022-12-18T00:05:26;101913.47;;;-3.92;97.53
15382;BME280;7789;51.364;12.358;2022-12-18T00:10:42;101908.34;;;-3.97;97.72
15382;BME280;7789;51.364;12.358;2022-12-18T00:16:00;101918.56;;;-4.00;96.32
15382;BME280;7789;51.364;12.358;2022-12-18T00:21:10;101910.91;;;-4.03;96.66
15382;BME280;7789;51.364;12.358;2022-12-18T00:26:16;101921.94;;;-4.05;96.76
15382;BME280;7789;51.364;12.358;2022-12-18T00:32:01;101914.25;;;-4.10;97.38
15382;BME280;7789;51.364;12.358;2022-12-18T00:37:13;101902.34;;;-4.14;96.30
15382;BME280;7789;51.364;12.358;2022-12-18T00:42:30;101899.81;;;-4.15;96.01
15382;BME280;7789;51.364;12.358;2022-12-18T00:48:11;101911.69;;;-4.20;96.95
15382;BME280;7789;51.364;12.358;2022-12-18T00:53:20;101921.03;;;-4.22;96.61
15382;BME280;7789;51.364;12.358;2022-12-18T00:58:34;101929.56;;;-4.25;96.39
15382;BME280;7789;51.364;12.358;2022-12-18T01:03:45;101919.31;;;-4.28;96.37
15382;BME280;7789;51.364;12.358;2022-12-18T01:08:52;101912.50;;;-4.36;96.58
15382;BME280;7789;51.364;12.358;2022-12-18T01:14:04;101933.75;;;-4.39;96.23
15382;BME280;7789;51.364;12.358;2022-12-18T01:19:17;101934.56;;;-4.43;96.94
15382;BME280;7789;51.364;12.358;2022-12-18T01:24:31;101931.16;;;-4.51;95.43
15382;BME280;7789;51.364;12.358;2022-12-18T01:29:48;101939.63;;;-4.53;96.15
15382;BME280;7789;51.364;12.358;2022-12-18T01:35:01;101942.16;;;-4.59;95.36
15382;BME280;7789;51.364;12.358;2022-12-18T01:40:17;101954.91;;;-4.65;95.90
15382;BME280;7789;51.364;12.358;2022-12-18T01:45:31;101966.78;;;-4.69;95.77
15382;BME280;7789;51.364;12.358;2022-12-18T01:50:49;101969.31;;;-4.72;95.57
15382;BME280;7789;51.364;12.358;2022-12-18T01:55:56;101966.75;;;-4.73;95.20
15382;BME280;7789;51.364;12.358;2022-12-18T02:01:05;101969.31;;;-4.75;96.19
15382;BME280;7789;51.364;12.358;2022-12-18T02:06:18;101965.06;;;-4.73;95.00
15382;BME280;7789;51.364;12.358;2022-12-18T02:11:40;101970.13;;;-4.74;94.37
15382;BME280;7789;51.364;12.358;2022-12-18T02:16:54;101964.16;;;-4.78;95.13
15382;BME280;7789;51.364;12.358;2022-12-18T02:22:15;101974.34;;;-4.78;95.08
15382;BME280;7789;51.364;12.358;2022-12-18T02:27:32;101967.56;;;-4.77;96.20
15382;BME280;7789;51.364;12.358;2022-12-18T02:32:39;101969.28;;;-4.76;96.48
15382;BME280;7789;51.364;12.358;2022-12-18T02:38:00;101966.75;;;-4.72;95.62
15382;BME280;7789;51.364;12.358;2022-12-18T02:43:15;101959.94;;;-4.71;96.00
15382;BME280;7789;51.364;12.358;2022-12-18T02:48:29;101968.47;;;-4.71;96.90
15382;BME280;7789;51.364;12.358;2022-12-18T02:53:58;101970.16;;;-4.71;95.36
15382;BME280;7789;51.364;12.358;2022-12-18T02:59:13;101975.25;;;-4.71;95.66
15382;BME280;7789;51.364;12.358;2022-12-18T03:04:34;101971.84;;;-4.70;95.35
15382;BME280;7789;51.364;12.358;2022-12-18T03:09:50;101967.63;;;-4.73;95.92
15382;BME280;7789;51.364;12.358;2022-12-18T03:15:02;101979.50;;;-4.73;95.14
15382;BME280;7789;51.364;12.358;2022-12-18T03:20:18;101985.44;;;-4.76;95.82
15382;BME280;7789;51.364;12.358;2022-12-18T03:25:25;101992.22;;;-4.76;95.09
15382;BME280;7789;51.364;12.358;2022-12-18T03:30:55;102004.97;;;-4.76;96.08
15382;BME280;7789;51.364;12.358;2022-12-18T03:36:23;101996.47;;;-4.78;96.66
15382;BME280;7789;51.364;12.358;2022-12-18T03:41:33;102006.66;;;-4.78;95.08
15382;BME280;7789;51.364;12.358;2022-12-18T03:46:53;101992.19;;;-4.82;95.17
15382;BME280;7789;51.364;12.358;2022-12-18T03:52:08;101981.97;;;-4.85;95.37
15382;BME280;7789;51.364;12.358;2022-12-18T03:57:15;101981.97;;;-4.87;94.61
15382;BME280;7789;51.364;12.358;2022-12-18T04:02:45;101991.31;;;-4.89;95.72
15382;BME280;7789;51.364;12.358;2022-12-18T04:08:09;101998.09;;;-4.89;94.67
15382;BME280;7789;51.364;12.358;2022-12-18T04:13:27;101996.38;;;-4.90;95.45
15382;BME280;7789;51.364;12.358;2022-12-18T04:18:37;101990.41;;;-4.95;94.12
15382;BME280;7789;51.364;12.358;2022-12-18T04:23:53;101989.53;;;-5.00;94.23
15382;BME280;7789;51.364;12.358;2022-12-18T04:29:04;101981.00;;;-5.07;95.21
15382;BME280;7789;51.364;12.358;2022-12-18T04:34:24;101991.16;;;-5.10;94.41
15382;BME280;7789;51.364;12.358;2022-12-18T04:39:42;101991.13;;;-5.13;94.45
15382;BME280;7789;51.364;12.358;2022-12-18T04:44:55;101985.16;;;-5.19;95.39
15382;BME280;7789;51.364;12.358;2022-12-18T04:50:18;101982.56;;;-5.22;93.63
15382;BME280;7789;51.364;12.358;2022-12-18T04:55:29;101984.19;;;-5.30;93.83
15382;BME280;7789;51.364;12.358;2022-12-18T05:00:35;101979.94;;;-5.30;94.95
15382;BME280;7789;51.364;12.358;2022-12-18T05:05:55;101980.81;;;-5.29;94.09
15382;BME280;7789;51.364;12.358;2022-12-18T05:11:07;101979.09;;;-5.32;94.38
15382;BME280;7789;51.364;12.358;2022-12-18T05:16:15;101989.22;;;-5.38;93.67
15382;BME280;7789;51.364;12.358;2022-12-18T05:21:26;101986.63;;;-5.45;94.09
15382;BME280;7789;51.364;12.358;2022-12-18T05:27:02;101994.22;;;-5.51;94.11
15382;BME280;7789;51.364;12.358;2022-12-18T05:32:26;102006.09;;;-5.50;93.73
15382;BME280;7789;51.364;12.358;2022-12-18T05:37:46;102001.84;;;-5.51;94.01
15382;BME280;7789;51.364;12.358;2022-12-18T05:43:00;102006.06;;;-5.51;92.90
15382;BME280;7789;51.364;12.358;2022-12-18T05:48:18;102014.56;;;-5.49;93.92
15382;BME280;7789;51.364;12.358;2022-12-18T05:53:40;102025.69;;;-5.44;93.16
15382;BME280;7789;51.364;12.358;2022-12-18T05:58:52;102028.22;;;-5.43;94.31
15382;BME280;7789;51.364;12.358;2022-12-18T06:04:04;102020.59;;;-5.40;93.29
15382;BME280;7789;51.364;12.358;2022-12-18T06:09:17;102037.59;;;-5.39;93.44
15382;BME280;7789;51.364;12.358;2022-12-18T06:14:25;102034.22;;;-5.40;94.17
15382;BME280;7789;51.364;12.358;2022-12-18T06:19:58;102041.91;;;-5.34;93.62
15382;BME280;7789;51.364;12.358;2022-12-18T06:25:18;102049.53;;;-5.34;94.01
15382;BME280;7789;51.364;12.358;2022-12-18T06:30:23;102042.72;;;-5.35;93.63
15382;BME280;7789;51.364;12.358;2022-12-18T06:35:29;102051.25;;;-5.34;94.77
15382;BME280;7789;51.364;12.358;2022-12-18T06:40:49;102048.69;;;-5.33;94.45
15382;BME280;7789;51.364;12.358;2022-12-18T06:46:02;102047.88;;;-5.30;94.45
15382;BME280;7789;51.364;12.358;2022-12-18T06:51:11;102048.72;;;-5.30;93.60
15382;BME280;7789;51.364;12.358;2022-12-18T06:56:26;102058.06;;;-5.29;93.21
15382;BME280;7789;51.364;12.358;2022-12-18T07:01:33;102050.41;;;-5.29;93.49
15382;BME280;7789;51.364;12.358;2022-12-18T07:06:41;102054.69;;;-5.26;93.14
15382;BME280;7789;51.364;12.358;2022-12-18T07:11:53;102050.41;;;-5.29;94.28
15382;BME280;7789;51.364;12.358;2022-12-18T07:16:57;102058.00;;;-5.38;92.53
15382;BME280;7789;51.364;12.358;2022-12-18T07:22:19;102059.66;;;-5.38;93.22
15382;BME280;7789;51.364;12.358;2022-12-18T07:27:31;102063.06;;;-5.41;92.76
15382;BME280;7789;51.364;12.358;2022-12-18T07:33:06;102067.22;;;-5.50;93.56
15382;BME280;7789;51.364;12.358;2022-12-18T07:38:19;102066.31;;;-5.53;93.40
15382;BME280;7789;51.364;12.358;2022-12-18T07:43:34;102080.72;;;-5.54;92.20
15382;BME280;7789;51.364;12.358;2022-12-18T07:48:46;102085.06;;;-5.47;92.62
15382;BME280;7789;51.364;12.358;2022-12-18T07:54:07;102091.88;;;-5.43;91.75
15382;BME280;7789;51.364;12.358;2022-12-18T07:59:22;102095.31;;;-5.41;93.04
15382;BME280;7789;51.364;12.358;2022-12-18T08:04:42;102105.59;;;-5.31;92.95
15382;BME280;7789;51.364;12.358;2022-12-18T08:09:51;102097.16;;;-5.27;91.50
15382;BME280;7789;51.364;12.358;2022-12-18T08:14:59;102095.50;;;-5.20;92.46
15382;BME280;7789;51.364;12.358;2022-12-18T08:20:10;102104.94;;;-5.12;92.71
15382;BME280;7789;51.364;12.358;2022-12-18T08:25:24;102115.19;;;-5.04;91.55
15382;BME280;7789;51.364;12.358;2022-12-18T08:30:37;102112.72;;;-4.98;92.01
15382;BME280;7789;51.364;12.358;2022-12-18T08:35:52;102128.91;;;-4.93;92.30
15382;BME280;7789;51.364;12.358;2022-12-18T08:41:06;102120.50;;;-4.82;92.04
15382;BME280;7789;51.364;12.358;2022-12-18T08:46:13;102127.38;;;-4.70;90.62
15382;BME280;7789;51.364;12.358;2022-12-18T08:51:21;102124.88;;;-4.66;91.37
15382;BME280;7789;51.364;12.358;2022-12-18T08:56:29;102119.03;;;-4.53;90.69
15382;BME280;7789;51.364;12.358;2022-12-18T09:01:43;102129.34;;;-4.38;90.36
15382;BME280;7789;51.364;12.358;2022-12-18T09:07:03;102143.00;;;-4.28;91.59
15382;BME280;7789;51.364;12.358;2022-12-18T09:12:24;102137.13;;;-4.14;89.96
15382;BME280;7789;51.364;12.358;2022-12-18T09:17:30;102129.56;;;-4.05;90.53
15382;BME280;7789;51.364;12.358;2022-12-18T09:22:33;102127.03;;;-3.99;89.72
15382;BME280;7789;51.364;12.358;2022-12-18T09:27:36;102121.97;;;-3.90;90.40
15382;BME280;7789;51.364;12.358;2022-12-18T09:32:44;102120.31;;;-3.76;89.19
15382;BME280;7789;51.364;12.358;2022-12-18T09:37:48;102116.94;;;-3.70;89.50
15382;BME280;7789;51.364;12.358;2022-12-18T09:42:54;102110.16;;;-3.58;89.11
15382;BME280;7789;51.364;12.358;2022-12-18T09:48:01;102089.78;;;-3.36;89.44
15382;BME280;7789;51.364;12.358;2022-12-18T09:53:12;102076.19;;;-3.20;89.19
15382;BME280;7789;51.364;12.358;2022-12-18T09:58:20;102066.84;;;-3.15;88.41
15382;BME280;7789;51.364;12.358;2022-12-18T10:03:27;102058.31;;;-3.06;87.55
15382;BME280;7789;51.364;12.358;2022-12-18T10:08:37;102057.47;;;-3.02;88.64
15382;BME280;7789;51.364;12.358;2022-12-18T10:13:49;102046.38;;;-3.04;87.87
15382;BME280;7789;51.364;12.358;2022-12-18T10:19:04;102039.56;;;-2.99;88.30
15382;BME280;7789;51.364;12.358;2022-12-18T10:24:20;102048.06;;;-2.97;87.88
15382;BME280;7789;51.364;12.358;2022-12-18T10:29:27;102027.63;;;-2.94;87.72
15382;BME280;7789;51.364;12.358;2022-12-18T10:34:32;102042.09;;;-2.83;87.17
15382;BME280;7789;51.364;12.358;2022-12-18T10:39:35;102037.81;;;-2.72;87.00
15382;BME280;7789;51.364;12.358;2022-12-18T10:44:39;102033.56;;;-2.61;86.50
15382;BME280;7789;51.364;12.358;2022-12-18T10:49:48;102025.81;;;-2.37;86.19
15382;BME280;7789;51.364;12.358;2022-12-18T10:54:54;102013.84;;;-2.27;86.73
15382;BME280;7789;51.364;12.358;2022-12-18T11:00:20;102013.84;;;-2.27;85.39
15382;BME280;7789;51.364;12.358;2022-12-18T11:05:31;102015.56;;;-2.32;85.43
15382;BME280;7789;51.364;12.358;2022-12-18T11:10:36;102023.22;;;-2.29;85.44
15382;BME280;7789;51.364;12.358;2022-12-18T11:15:43;102016.38;;;-2.23;85.18
15382;BME280;7789;51.364;12.358;2022-12-18T11:20:54;102026.56;;;-2.14;85.26
15382;BME280;7789;51.364;12.358;2022-12-18T11:26:01;102030.00;;;-2.15;85.25
15382;BME280;7789;51.364;12.358;2022-12-18T11:31:12;102029.09;;;-2.06;85.05
15382;BME280;7789;51.364;12.358;2022-12-18T11:36:21;102024.00;;;-2.03;84.86
15382;BME280;7789;51.364;12.358;2022-12-18T11:41:29;102039.38;;;-2.03;84.91
15382;BME280;7789;51.364;12.358;2022-12-18T11:46:51;102046.19;;;-2.02;84.64
15382;BME280;7789;51.364;12.358;2022-12-18T11:52:03;102032.47;;;-1.92;84.60
15382;BME280;7789;51.364;12.358;2022-12-18T11:57:14;102025.63;;;-1.90;84.19
15382;BME280;7789;51.364;12.358;2022-12-18T12:02:37;102014.47;;;-1.82;84.44
15382;BME280;7789;51.364;12.358;2022-12-18T12:07:58;102012.75;;;-1.77;83.74
15382;BME280;7789;51.364;12.358;2022-12-18T12:13:15;102015.25;;;-1.67;84.22
15382;BME280;7789;51.364;12.358;2022-12-18T12:18:36;102009.25;;;-1.61;84.14
15382;BME280;7789;51.364;12.358;2022-12-18T12:23:49;101992.03;;;-1.47;83.46
15382;BME280;7789;51.364;12.358;2022-12-18T12:29:03;101979.25;;;-1.50;82.87
15382;BME280;7789;51.364;12.358;2022-12-18T12:34:17;101975.03;;;-1.54;82.84
15382;BME280;7789;51.364;12.358;2022-12-18T12:39:27;101976.75;;;-1.56;83.20
15382;BME280;7789;51.364;12.358;2022-12-18T12:44:37;101984.50;;;-1.67;82.70
15382;BME280;7789;51.364;12.358;2022-12-18T12:49:46;101992.16;;;-1.62;82.31
15382;BME280;7789;51.364;12.358;2022-12-18T12:54:54;101995.63;;;-1.68;82.37
15382;BME280;7789;51.364;12.358;2022-12-18T13:00:03;101987.94;;;-1.68;81.88
15382;BME280;7789;51.364;12.358;2022-12-18T13:05:16;101969.09;;;-1.59;82.10
15382;BME280;7789;51.364;12.358;2022-12-18T13:10:30;101955.44;;;-1.63;81.60
15382;BME280;7789;51.364;12.358;2022-12-18T13:15:38;101940.91;;;-1.64;81.82
15382;BME280;7789;51.364;12.358;2022-12-18T13:20:43;101942.63;;;-1.61;81.48
15382;BME280;7789;51.364;12.358;2022-12-18T13:25:58;101943.47;;;-1.65;81.84
15382;BME280;7789;51.364;12.358;2022-12-18T13:31:03;101946.88;;;-1.60;81.91
15382;BME280;7789;51.364;12.358;2022-12-18T13:36:16;101947.75;;;-1.61;81.47
15382;BME280;7789;51.364;12.358;2022-12-18T13:41:27;101949.44;;;-1.62;81.89
15382;BME280;7789;51.364;12.358;2022-12-18T13:46:42;101959.66;;;-1.59;81.69
15382;BME280;7789;51.364;12.358;2022-12-18T13:51:48;101943.47;;;-1.65;82.39
15382;BME280;7789;51.364;12.358;2022-12-18T13:56:54;101924.72;;;-1.70;82.59
15382;BME280;7789;51.364;12.358;2022-12-18T14:01:59;101913.66;;;-1.72;83.00
15382;BME280;7789;51.364;12.358;2022-12-18T14:07:10;101919.63;;;-1.69;82.49
15382;BME280;7789;51.364;12.358;2022-12-18T14:12:21;101929.03;;;-1.74;83.13
15382;BME280;7789;51.364;12.358;2022-12-18T14:17:42;101931.63;;;-1.81;82.82
15382;BME280;7789;51.364;12.358;2022-12-18T14:22:47;101929.97;;;-1.83;83.39
15382;BME280;7789;51.364;12.358;2022-12-18T14:28:04;101918.00;;;-1.86;83.14
15382;BME280;7789;51.364;12.358;2022-12-18T14:33:13;101927.41;;;-1.88;83.85
15382;BME280;7789;51.364;12.358;2022-12-18T14:38:21;101917.22;;;-1.94;83.42
15382;BME280;7789;51.364;12.358;2022-12-18T14:43:27;101912.94;;;-1.93;83.88
15382;BME280;7789;51.364;12.358;2022-12-18T14:48:36;101915.56;;;-1.99;83.67
15382;BME280;7789;51.364;12.358;2022-12-18T14:53:42;101904.53;;;-2.12;84.74
15382;BME280;7789;51.364;12.358;2022-12-18T14:58:57;101911.41;;;-2.20;84.83
15382;BME280;7789;51.364;12.358;2022-12-18T15:04:02;101899.47;;;-2.21;85.01
15382;BME280;7789;51.364;12.358;2022-12-18T15:09:21;101899.50;;;-2.31;84.88
15382;BME280;7789;51.364;12.358;2022-12-18T15:14:42;101908.91;;;-2.35;84.58
15382;BME280;7789;51.364;12.358;2022-12-18T15:19:47;101916.63;;;-2.42;84.61
15382;BME280;7789;51.364;12.358;2022-12-18T15:24:51;101916.66;;;-2.48;84.61
15382;BME280;7789;51.364;12.358;2022-12-18T15:30:17;101916.63;;;-2.42;84.88
15382;BME280;7789;51.364;12.358;2022-12-18T15:35:22;101920.91;;;-2.43;84.97
15382;BME280;7789;51.364;12.358;2022-12-18T15:40:26;101918.34;;;-2.44;84.49
15382;BME280;7789;51.364;12.358;2022-12-18T15:45:30;101912.38;;;-2.48;84.46
15382;BME280;7789;51.364;12.358;2022-12-18T15:50:34;101907.28;;;-2.49;84.64
15382;BME280;7789;51.364;12.358;2022-12-18T15:55:37;101900.44;;;-2.46;84.89
15382;BME280;7789;51.364;12.358;2022-12-18T16:01:03;101895.31;;;-2.49;85.01
15382;BME280;7789;51.364;12.358;2022-12-18T16:06:09;101896.22;;;-2.51;84.80
15382;BME280;7789;51.364;12.358;2022-12-18T16:11:21;101869.78;;;-2.58;84.85
15382;BME280;7789;51.364;12.358;2022-12-18T16:16:44;101868.13;;;-2.66;84.83
15382;BME280;7789;51.364;12.358;2022-12-18T16:21:50;101868.97;;;-2.69;85.27
15382;BME280;7789;51.364;12.358;2022-12-18T16:26:55;101876.63;;;-2.64;85.06
15382;BME280;7789;51.364;12.358;2022-12-18T16:32:00;101876.66;;;-2.67;84.99
15382;BME280;7789;51.364;12.358;2022-12-18T16:37:05;101868.97;;;-2.67;85.47
15382;BME280;7789;51.364;12.358;2022-12-18T16:42:12;101878.34;;;-2.65;84.68
15382;BME280;7789;51.364;12.358;2022-12-18T16:47:19;101858.75;;;-2.63;84.93
15382;BME280;7789;51.364;12.358;2022-12-18T16:52:23;101857.03;;;-2.64;84.23
15382;BME280;7789;51.364;12.358;2022-12-18T16:57:26;101857.03;;;-2.65;84.74
15382;BME280;7789;51.364;12.358;2022-12-18T17:02:31;101835.69;;;-2.61;84.41
15382;BME280;7789;51.364;12.358;2022-12-18T17:07:35;101831.44;;;-2.65;84.51
15382;BME280;7789;51.364;12.358;2022-12-18T17:12:38;101825.53;;;-2.70;83.90
15382;BME280;7789;51.364;12.358;2022-12-18T17:17:43;101813.53;;;-2.67;83.90
15382;BME280;7789;51.364;12.358;2022-12-18T17:22:46;101817.78;;;-2.61;84.13
15382;BME280;7789;51.364;12.358;2022-12-18T17:27:49;101821.16;;;-2.56;83.73
15382;BME280;7789;51.364;12.358;2022-12-18T17:32:54;101805.81;;;-2.56;84.37
15382;BME280;7789;51.364;12.358;2022-12-18T17:37:57;101796.44;;;-2.54;83.69
15382;BME280;7789;51.364;12.358;2022-12-18T17:43:01;101792.13;;;-2.49;83.77
15382;BME280;7789;51.364;12.358;2022-12-18T17:48:07;101798.91;;;-2.47;83.68
15382;BME280;7789;51.364;12.358;2022-12-18T17:53:11;101798.91;;;-2.41;83.48
15382;BME280;7789;51.364;12.358;2022-12-18T17:58:14;101794.59;;;-2.34;83.51
15382;BME280;7789;51.364;12.358;2022-12-18T18:03:19;101791.97;;;-2.28;83.17
15382;BME280;7789;51.364;12.358;2022-12-18T18:08:23;101797.06;;;-2.25;83.02
15382;BME280;7789;51.364;12.358;2022-12-18T18:13:26;101791.91;;;-2.18;83.09
15382;BME280;7789;51.364;12.358;2022-12-18T18:18:49;101787.59;;;-2.10;82.99
15382;BME280;7789;51.364;12.358;2022-12-18T18:23:53;101773.84;;;-2.03;82.85
15382;BME280;7789;51.364;12.358;2022-12-18T18:28:56;101762.78;;;-2.05;82.96
15382;BME280;7789;51.364;12.358;2022-12-18T18:34:04;101770.41;;;-1.99;82.88
15382;BME280;7789;51.364;12.358;2022-12-18T18:39:08;101767.81;;;-1.94;82.72
15382;BME280;7789;51.364;12.358;2022-12-18T18:44:12;101757.53;;;-1.90;82.68
15382;BME280;7789;51.364;12.358;2022-12-18T18:49:16;101759.19;;;-1.84;82.72
15382;BME280;7789;51.364;12.358;2022-12-18T18:54:20;101757.44;;;-1.80;82.91
15382;BME280;7789;51.364;12.358;2022-12-18T18:59:23;101750.56;;;-1.76;81.79
15382;BME280;7789;51.364;12.358;2022-12-18T19:04:34;101738.56;;;-1.70;81.99
15382;BME280;7789;51.364;12.358;2022-12-18T19:09:46;101727.44;;;-1.69;81.80
15382;BME280;7789;51.364;12.358;2022-12-18T19:14:53;101716.41;;;-1.75;82.11
15382;BME280;7789;51.364;12.358;2022-12-18T19:19:57;101708.59;;;-1.66;81.52
15382;BME280;7789;51.364;12.358;2022-12-18T19:25:01;101696.59;;;-1.64;82.06
15382;BME280;7789;51.364;12.358;2022-12-18T19:30:05;101695.75;;;-1.62;80.80
15382;BME280;7789;51.364;12.358;2022-12-18T19:35:10;101694.03;;;-1.61;80.79
15382;BME280;7789;51.364;12.358;2022-12-18T19:40:15;101694.00;;;-1.58;80.48
15382;BME280;7789;51.364;12.358;2022-12-18T19:45:18;101670.03;;;-1.54;80.94
15382;BME280;7789;51.364;12.358;2022-12-18T19:50:26;101669.16;;;-1.53;80.32
15382;BME280;7789;51.364;12.358;2022-12-18T19:55:30;101676.81;;;-1.49;80.04
15382;BME280;7789;51.364;12.358;2022-12-18T20:00:33;101681.06;;;-1.49;80.16
15382;BME280;7789;51.364;12.358;2022-12-18T20:05:37;101692.13;;;-1.44;80.41
15382;BME280;7789;51.364;12.358;2022-12-18T20:10:41;101686.91;;;-1.40;79.92
15382;BME280;7789;51.364;12.358;2022-12-18T20:15:46;101669.78;;;-1.36;80.07
15382;BME280;7789;51.364;12.358;2022-12-18T20:20:50;101667.16;;;-1.30;79.26
15382;BME280;7789;51.364;12.358;2022-12-18T20:25:56;101661.91;;;-1.23;79.60
15382;BME280;7789;51.364;12.358;2022-12-18T20:31:00;101659.31;;;-1.20;79.24
15382;BME280;7789;51.364;12.358;2022-12-18T20:36:07;101670.38;;;-1.15;78.81
15382;BME280;7789;51.364;12.358;2022-12-18T20:41:16;101670.28;;;-1.09;79.72
15382;BME280;7789;51.364;12.358;2022-12-18T20:46:19;101672.75;;;-1.01;79.44
15382;BME280;7789;51.364;12.358;2022-12-18T20:51:24;101679.44;;;-0.91;78.30
15382;BME280;7789;51.364;12.358;2022-12-18T20:56:29;101681.00;;;-0.81;78.09
15382;BME280;7789;51.364;12.358;2022-12-18T21:01:32;101672.34;;;-0.74;79.45
15382;BME280;7789;51.364;12.358;2022-12-18T21:06:39;101675.63;;;-0.66;78.97
15382;BME280;7789;51.364;12.358;2022-12-18T21:11:46;101657.63;;;-0.63;79.08
15382;BME280;7789;51.364;12.358;2022-12-18T21:17:04;101637.00;;;-0.59;78.80
15382;BME280;7789;51.364;12.358;2022-12-18T21:22:08;101644.66;;;-0.56;77.96
15382;BME280;7789;51.364;12.358;2022-12-18T21:27:12;101644.56;;;-0.50;78.94
15382;BME280;7789;51.364;12.358;2022-12-18T21:32:18;101661.66;;;-0.49;78.51
15382;BME280;7789;51.364;12.358;2022-12-18T21:37:25;101664.94;;;-0.39;77.40
15382;BME280;7789;51.364;12.358;2022-12-18T21:42:28;101647.72;;;-0.36;78.02
15382;BME280;7789;51.364;12.358;2022-12-18T21:47:49;101628.88;;;-0.33;77.68
15382;BME280;7789;51.364;12.358;2022-12-18T21:52:53;101631.44;;;-0.33;77.11
15382;BME280;7789;51.364;12.358;2022-12-18T21:57:57;101621.97;;;-0.30;77.66
15382;BME280;7789;51.364;12.358;2022-12-18T22:03:00;101622.78;;;-0.29;77.05
15382;BME280;7789;51.364;12.358;2022-12-18T22:08:20;101631.25;;;-0.23;76.95
15382;BME280;7789;51.364;12.358;2022-12-18T22:13:23;101602.06;;;-0.19;76.84
15382;BME280;7789;51.364;12.358;2022-12-18T22:18:27;101587.50;;;-0.18;76.27
15382;BME280;7789;51.364;12.358;2022-12-18T22:23:33;101584.88;;;-0.15;76.54
15382;BME280;7789;51.364;12.358;2022-12-18T22:28:39;101582.50;;;-0.24;76.75
15382;BME280;7789;51.364;12.358;2022-12-18T22:34:15;101593.38;;;-0.13;76.41
15382;BME280;7789;51.364;12.358;2022-12-18T22:39:32;101606.16;;;-0.09;76.78
15382;BME280;7789;51.364;12.358;2022-12-18T22:44:37;101607.78;;;-0.05;76.11
15382;BME280;7789;51.364;12.358;2022-12-18T22:49:43;101566.69;;;-0.05;76.39
15382;BME280;7789;51.364;12.358;2022-12-18T22:55:08;101547.19;;;-0.15;76.59
15382;BME280;7789;51.364;12.358;2022-12-18T23:00:16;101563.34;;;-0.08;75.69
15382;BME280;7789;51.364;12.358;2022-12-18T23:05:46;101558.16;;;-0.07;75.47
15382;BME280;7789;51.364;12.358;2022-12-18T23:10:58;101530.75;;;-0.06;76.24
15382;BME280;7789;51.364;12.358;2022-12-18T23:16:12;101544.34;;;-0.02;76.01
15382;BME280;7789;51.364;12.358;2022-12-18T23:21:22;101544.38;;;-0.03;76.17
15382;BME280;7789;51.364;12.358;2022-12-18T23:26:53;101520.28;;;0.02;76.30
15382;BME280;7789;51.364;12.358;2022-12-18T23:31:57;101503.34;;;-0.06;76.88
15382;BME280;7789;51.364;12.358;2022-12-18T23:37:01;101493.13;;;-0.09;76.71
15382;BME280;7789;51.364;12.358;2022-12-18T23:42:11;101504.28;;;-0.11;76.08
15382;BME280;7789;51.364;12.358;2022-12-18T23:47:31;101516.22;;;-0.07;76.03
15382;BME280;7789;51.364;12.358;2022-12-18T23:52:36;101497.38;;;-0.06;76.08
15382;BME280;7789;51.364;12.358;2022-12-18T23:58:13;101489.59;;;-0.05;76.76
